sensor_id;sensor_type;location;lat;lon;timestamp;pressure;altitude;pressure_sealevel;temperature;humidity
60228;BME280;46091;46.512;6.626;2023-01-29T00:01:23;97517.34;;;3.88;51.80
60228;BME280;46091;46.512;6.626;2023-01-29T00:03:25;97510.31;;;3.89;51.88
60228;BME280;46091;46.512;6.626;2023-01-29T00:05:29;97514.59;;;3.90;51.76
60228;BME280;46091;46.512;6.626;2023-01-29T00:07:33;97511.03;;;3.91;51.72
60228;BME280;46091;46.512;6.626;2023-01-29T00:09:38;97513.78;;;3.89;51.81
60228;BME280;46091;46.512;6.626;2023-01-29T00:11:41;97515.84;;;3.86;51.84
60228;BME280;46091;46.512;6.626;2023-01-29T00:13:43;97514.03;;;3.86;51.83
60228;BME280;46091;46.512;6.626;2023-01-29T00:15:52;97516.25;;;3.91;51.78
60228;BME280;46091;46.512;6.626;2023-01-29T00:17:56;97512.13;;;3.88;51.82
60228;BME280;46091;46.512;6.626;2023-01-29T00:19:59;97524.22;;;3.89;51.80
60228;BME280;46091;46.512;6.626;2023-01-29T00:22:02;97515.69;;;3.87;51.85
60228;BME280;46091;46.512;6.626;2023-01-29T00:24:06;97506.44;;;3.83;51.79
60228;BME280;46091;46.512;6.626;2023-01-29T00:26:10;97513.09;;;3.87;51.88
60228;BME280;46091;46.512;6.626;2023-01-29T00:28:13;97511.28;;;3.88;51.74
60228;BME280;46091;46.512;6.626;2023-01-29T00:30:17;97514.47;;;3.91;51.72
60228;BME280;46091;46.512;6.626;2023-01-29T00:32:21;97510.31;;;3.89;51.72
60228;BME280;46091;46.512;6.626;2023-01-29T00:34:24;97510.31;;;3.89;51.79
60228;BME280;46091;46.512;6.626;2023-01-29T00:36:26;97506.06;;;3.88;51.86
60228;BME280;46091;46.512;6.626;2023-01-29T00:38:29;97498.75;;;3.91;51.72
60228;BME280;46091;46.512;6.626;2023-01-29T00:40:36;97510.47;;;3.87;51.95
60228;BME280;46091;46.512;6.626;2023-01-29T00:42:53;97511.03;;;3.91;51.82
60228;BME280;46091;46.512;6.626;2023-01-29T00:45:14;97503.84;;;3.93;51.83
60228;BME280;46091;46.512;6.626;2023-01-29T00:47:16;97502.75;;;3.95;51.71
60228;BME280;46091;46.512;6.626;2023-01-29T00:49:34;97504.97;;;3.90;51.72
60228;BME280;46091;46.512;6.626;2023-01-29T00:51:38;97520.78;;;3.89;51.90
60228;BME280;46091;46.512;6.626;2023-01-29T00:53:40;97512.94;;;3.89;51.87
60228;BME280;46091;46.512;6.626;2023-01-29T00:55:45;97510.31;;;3.89;51.83
60228;BME280;46091;46.512;6.626;2023-01-29T00:57:48;97512.25;;;3.87;51.93
60228;BME280;46091;46.512;6.626;2023-01-29T00:59:50;97517.34;;;3.88;51.90
60228;BME280;46091;46.512;6.626;2023-01-29T01:01:53;97513.78;;;3.89;51.80
60228;BME280;46091;46.512;6.626;2023-01-29T01:04:13;97522.44;;;3.90;51.81
60228;BME280;46091;46.512;6.626;2023-01-29T01:06:16;97520.53;;;3.92;51.85
60228;BME280;46091;46.512;6.626;2023-01-29T01:08:19;97512.81;;;3.90;51.75
60228;BME280;46091;46.512;6.626;2023-01-29T01:10:39;97522.31;;;3.91;51.69
60228;BME280;46091;46.512;6.626;2023-01-29T01:12:43;97517.91;;;3.92;51.77
60228;BME280;46091;46.512;6.626;2023-01-29T01:14:46;97518.72;;;3.92;51.77
60228;BME280;46091;46.512;6.626;2023-01-29T01:16:49;97528.63;;;3.89;51.68
60228;BME280;46091;46.512;6.626;2023-01-29T01:18:52;97527.53;;;3.91;51.88
60228;BME280;46091;46.512;6.626;2023-01-29T01:20:56;97525.63;;;3.93;51.86
60228;BME280;46091;46.512;6.626;2023-01-29T01:23:00;97523.97;;;3.92;51.80
60228;BME280;46091;46.512;6.626;2023-01-29T01:25:03;97527.69;;;3.90;51.71
60228;BME280;46091;46.512;6.626;2023-01-29T01:27:07;97534.56;;;3.91;51.66
60228;BME280;46091;46.512;6.626;2023-01-29T01:29:11;97541.59;;;3.90;51.70
60228;BME280;46091;46.512;6.626;2023-01-29T01:31:14;97539.94;;;3.89;51.63
60228;BME280;46091;46.512;6.626;2023-01-29T01:33:17;97546.00;;;3.90;51.74
60228;BME280;46091;46.512;6.626;2023-01-29T01:35:20;97536.34;;;3.90;51.63
60228;BME280;46091;46.512;6.626;2023-01-29T01:37:23;97545.56;;;3.94;51.64
60228;BME280;46091;46.512;6.626;2023-01-29T01:39:26;97548.06;;;3.96;51.71
60228;BME280;46091;46.512;6.626;2023-01-29T01:41:29;97553.00;;;3.89;51.59
60228;BME280;46091;46.512;6.626;2023-01-29T01:43:46;97540.75;;;3.90;51.64
60228;BME280;46091;46.512;6.626;2023-01-29T01:45:51;97547.78;;;3.89;51.65
60228;BME280;46091;46.512;6.626;2023-01-29T01:47:57;97555.91;;;3.86;51.80
60228;BME280;46091;46.512;6.626;2023-01-29T01:50:06;97556.97;;;3.84;51.89
60228;BME280;46091;46.512;6.626;2023-01-29T01:52:11;97551.75;;;3.84;51.77
60228;BME280;46091;46.512;6.626;2023-01-29T01:54:18;97560.69;;;3.81;51.90
60228;BME280;46091;46.512;6.626;2023-01-29T01:56:26;97563.28;;;3.81;51.77
60228;BME280;46091;46.512;6.626;2023-01-29T01:58:32;97560.69;;;3.81;51.82
60228;BME280;46091;46.512;6.626;2023-01-29T02:00:36;97563.03;;;3.84;51.83
60228;BME280;46091;46.512;6.626;2023-01-29T02:02:43;97571.84;;;3.83;51.91
60228;BME280;46091;46.512;6.626;2023-01-29T02:05:06;97561.66;;;3.80;51.95
60228;BME280;46091;46.512;6.626;2023-01-29T02:07:27;97567.84;;;3.79;51.96
60228;BME280;46091;46.512;6.626;2023-01-29T02:09:49;97571.00;;;3.83;51.88
60228;BME280;46091;46.512;6.626;2023-01-29T02:11:54;97575.41;;;3.82;51.83
60228;BME280;46091;46.512;6.626;2023-01-29T02:13:57;97582.56;;;3.80;52.00
60228;BME280;46091;46.512;6.626;2023-01-29T02:15:59;97580.22;;;3.77;51.92
60228;BME280;46091;46.512;6.626;2023-01-29T02:18:04;97598.06;;;3.72;52.09
60228;BME280;46091;46.512;6.626;2023-01-29T02:20:11;97585.59;;;3.75;51.94
60228;BME280;46091;46.512;6.626;2023-01-29T02:22:45;97574.59;;;3.82;52.06
60228;BME280;46091;46.512;6.626;2023-01-29T02:25:02;97594.19;;;3.87;52.08
60228;BME280;46091;46.512;6.626;2023-01-29T02:27:14;97598.03;;;3.93;52.00
60228;BME280;46091;46.512;6.626;2023-01-29T02:29:22;97610.16;;;3.94;51.96
60228;BME280;46091;46.512;6.626;2023-01-29T02:31:37;97611.56;;;3.98;51.84
60228;BME280;46091;46.512;6.626;2023-01-29T02:33:48;97615.16;;;3.97;51.90
60228;BME280;46091;46.512;6.626;2023-01-29T02:36:01;97622.03;;;3.98;51.87
60228;BME280;46091;46.512;6.626;2023-01-29T02:38:11;97621.75;;;4.01;51.86
60228;BME280;46091;46.512;6.626;2023-01-29T02:40:25;97627.94;;;4.00;51.97
60228;BME280;46091;46.512;6.626;2023-01-29T02:42:33;97626.69;;;3.94;52.00
60228;BME280;46091;46.512;6.626;2023-01-29T02:44:41;97621.72;;;3.91;52.10
60228;BME280;46091;46.512;6.626;2023-01-29T02:46:51;97624.19;;;3.93;52.06
60228;BME280;46091;46.512;6.626;2023-01-29T02:48:58;97637.00;;;3.96;52.13
60228;BME280;46091;46.512;6.626;2023-01-29T02:51:05;97625.97;;;3.92;52.01
60228;BME280;46091;46.512;6.626;2023-01-29T02:53:12;97621.84;;;3.90;52.20
60228;BME280;46091;46.512;6.626;2023-01-29T02:55:20;97633.84;;;3.92;52.18
60228;BME280;46091;46.512;6.626;2023-01-29T02:57:28;97630.72;;;3.98;52.14
60228;BME280;46091;46.512;6.626;2023-01-29T02:59:34;97629.47;;;4.02;52.08
60228;BME280;46091;46.512;6.626;2023-01-29T03:01:43;97634.19;;;4.08;52.08
60228;BME280;46091;46.512;6.626;2023-01-29T03:03:51;97618.72;;;4.05;52.08
60228;BME280;46091;46.512;6.626;2023-01-29T03:05:58;97626.44;;;4.07;52.14
60228;BME280;46091;46.512;6.626;2023-01-29T03:08:09;97633.91;;;4.12;52.05
60228;BME280;46091;46.512;6.626;2023-01-29T03:10:16;97628.97;;;4.08;52.07
60228;BME280;46091;46.512;6.626;2023-01-29T03:12:22;97628.97;;;4.08;52.20
60228;BME280;46091;46.512;6.626;2023-01-29T03:14:36;97629.19;;;4.05;52.08
60228;BME280;46091;46.512;6.626;2023-01-29T03:16:56;97634.44;;;4.05;52.13
60228;BME280;46091;46.512;6.626;2023-01-29T03:19:01;97637.31;;;4.02;52.16
60228;BME280;46091;46.512;6.626;2023-01-29T03:21:11;97634.00;;;4.00;52.13
60228;BME280;46091;46.512;6.626;2023-01-29T03:23:32;97633.06;;;4.01;52.17
60228;BME280;46091;46.512;6.626;2023-01-29T03:25:56;97620.94;;;4.00;52.04
60228;BME280;46091;46.512;6.626;2023-01-29T03:28:18;97623.56;;;4.00;52.11
60228;BME280;46091;46.512;6.626;2023-01-29T03:30:43;97629.75;;;3.99;52.17
60228;BME280;46091;46.512;6.626;2023-01-29T03:33:08;97619.28;;;3.99;52.29
60228;BME280;46091;46.512;6.626;2023-01-29T03:35:13;97628.50;;;4.03;52.26
60228;BME280;46091;46.512;6.626;2023-01-29T03:37:27;97629.88;;;4.07;52.32
60228;BME280;46091;46.512;6.626;2023-01-29T03:39:31;97619.69;;;4.04;52.21
60228;BME280;46091;46.512;6.626;2023-01-29T03:41:36;97628.25;;;4.06;52.07
60228;BME280;46091;46.512;6.626;2023-01-29T03:43:46;97623.84;;;4.07;52.17
60228;BME280;46091;46.512;6.626;2023-01-29T03:46:00;97626.34;;;4.08;52.08
60228;BME280;46091;46.512;6.626;2023-01-29T03:48:10;97621.22;;;4.07;52.13
60228;BME280;46091;46.512;6.626;2023-01-29T03:50:24;97622.75;;;4.09;52.09
60228;BME280;46091;46.512;6.626;2023-01-29T03:52:39;97628.13;;;4.18;52.11
60228;BME280;46091;46.512;6.626;2023-01-29T03:54:50;97631.72;;;4.17;52.09
60228;BME280;46091;46.512;6.626;2023-01-29T03:56:59;97628.72;;;4.21;52.06
60228;BME280;46091;46.512;6.626;2023-01-29T03:59:12;97626.34;;;4.18;51.97
60228;BME280;46091;46.512;6.626;2023-01-29T04:01:20;97630.34;;;4.13;52.10
60228;BME280;46091;46.512;6.626;2023-01-29T04:03:31;97618.50;;;4.08;52.10
60228;BME280;46091;46.512;6.626;2023-01-29T04:05:39;97618.03;;;4.03;52.03
60228;BME280;46091;46.512;6.626;2023-01-29T04:07:45;97622.31;;;4.04;52.27
60228;BME280;46091;46.512;6.626;2023-01-29T04:09:52;97628.00;;;4.09;52.09
60228;BME280;46091;46.512;6.626;2023-01-29T04:12:02;97625.66;;;4.16;52.22
60228;BME280;46091;46.512;6.626;2023-01-29T04:14:06;97617.44;;;4.21;51.97
60228;BME280;46091;46.512;6.626;2023-01-29T04:16:13;97625.97;;;4.23;52.15
60228;BME280;46091;46.512;6.626;2023-01-29T04:18:18;97623.34;;;4.23;51.96
60228;BME280;46091;46.512;6.626;2023-01-29T04:20:23;97624.03;;;4.25;52.00
60228;BME280;46091;46.512;6.626;2023-01-29T04:22:30;97622.25;;;4.25;51.97
60228;BME280;46091;46.512;6.626;2023-01-29T04:24:33;97623.53;;;4.31;51.91
60228;BME280;46091;46.512;6.626;2023-01-29T04:26:51;97623.25;;;4.34;51.97
60228;BME280;46091;46.512;6.626;2023-01-29T04:29:13;97620.63;;;4.34;51.94
60228;BME280;46091;46.512;6.626;2023-01-29T04:31:21;97621.31;;;4.36;51.87
60228;BME280;46091;46.512;6.626;2023-01-29T04:33:32;97627.25;;;4.38;51.84
60228;BME280;46091;46.512;6.626;2023-01-29T04:35:46;97623.38;;;4.32;51.92
60228;BME280;46091;46.512;6.626;2023-01-29T04:38:02;97619.94;;;4.32;51.98
60228;BME280;46091;46.512;6.626;2023-01-29T04:40:18;97621.44;;;4.34;52.03
60228;BME280;46091;46.512;6.626;2023-01-29T04:42:28;97623.28;;;4.44;51.95
60228;BME280;46091;46.512;6.626;2023-01-29T04:44:36;97620.53;;;4.45;51.97
60228;BME280;46091;46.512;6.626;2023-01-29T04:46:46;97618.03;;;4.44;51.89
60228;BME280;46091;46.512;6.626;2023-01-29T04:48:59;97615.16;;;4.47;51.79
60228;BME280;46091;46.512;6.626;2023-01-29T04:51:11;97626.59;;;4.46;51.82
60228;BME280;46091;46.512;6.626;2023-01-29T04:53:19;97627.50;;;4.35;51.92
60228;BME280;46091;46.512;6.626;2023-01-29T04:55:30;97626.53;;;4.26;52.04
60228;BME280;46091;46.512;6.626;2023-01-29T04:57:40;97622.41;;;4.33;52.04
60228;BME280;46091;46.512;6.626;2023-01-29T04:59:49;97621.03;;;4.39;51.93
60228;BME280;46091;46.512;6.626;2023-01-29T05:01:54;97627.13;;;4.49;51.91
60228;BME280;46091;46.512;6.626;2023-01-29T05:03:59;97622.44;;;4.53;51.69
60228;BME280;46091;46.512;6.626;2023-01-29T05:06:04;97621.63;;;4.43;51.75
60228;BME280;46091;46.512;6.626;2023-01-29T05:08:12;97625.31;;;4.40;51.97
60228;BME280;46091;46.512;6.626;2023-01-29T05:10:19;97624.34;;;4.41;51.82
60228;BME280;46091;46.512;6.626;2023-01-29T05:12:24;97626.03;;;4.42;51.93
60228;BME280;46091;46.512;6.626;2023-01-29T05:14:29;97633.34;;;4.48;51.89
60228;BME280;46091;46.512;6.626;2023-01-29T05:16:39;97631.16;;;4.53;51.73
60228;BME280;46091;46.512;6.626;2023-01-29T05:18:44;97632.66;;;4.56;51.89
60228;BME280;46091;46.512;6.626;2023-01-29T05:20:48;97628.78;;;4.50;51.81
60228;BME280;46091;46.512;6.626;2023-01-29T05:22:51;97630.41;;;4.42;51.81
60228;BME280;46091;46.512;6.626;2023-01-29T05:24:55;97635.09;;;4.38;51.87
60228;BME280;46091;46.512;6.626;2023-01-29T05:26:59;97637.34;;;4.43;51.70
60228;BME280;46091;46.512;6.626;2023-01-29T05:29:19;97647.53;;;4.46;51.74
60228;BME280;46091;46.512;6.626;2023-01-29T05:31:22;97649.72;;;4.50;51.75
60228;BME280;46091;46.512;6.626;2023-01-29T05:33:27;97649.91;;;4.58;51.66
60228;BME280;46091;46.512;6.626;2023-01-29T05:35:30;97654.16;;;4.59;51.53
60228;BME280;46091;46.512;6.626;2023-01-29T05:37:33;97655.56;;;4.54;51.71
60228;BME280;46091;46.512;6.626;2023-01-29T05:39:36;97658.56;;;4.49;51.62
60228;BME280;46091;46.512;6.626;2023-01-29T05:41:40;97661.44;;;4.46;51.67
60228;BME280;46091;46.512;6.626;2023-01-29T05:43:43;97662.97;;;4.49;51.64
60228;BME280;46091;46.512;6.626;2023-01-29T05:45:51;97667.91;;;4.52;51.69
60228;BME280;46091;46.512;6.626;2023-01-29T05:47:55;97668.06;;;4.50;51.66
60228;BME280;46091;46.512;6.626;2023-01-29T05:49:58;97679.22;;;4.52;51.56
60228;BME280;46091;46.512;6.626;2023-01-29T05:52:01;97689.00;;;4.50;51.45
60228;BME280;46091;46.512;6.626;2023-01-29T05:54:03;97687.75;;;4.45;51.46
60228;BME280;46091;46.512;6.626;2023-01-29T05:56:06;97693.53;;;4.38;51.73
60228;BME280;46091;46.512;6.626;2023-01-29T05:58:11;97699.84;;;4.36;51.59
60228;BME280;46091;46.512;6.626;2023-01-29T06:00:15;97687.72;;;4.35;51.56
60228;BME280;46091;46.512;6.626;2023-01-29T06:02:18;97701.09;;;4.32;51.71
60228;BME280;46091;46.512;6.626;2023-01-29T06:04:21;97712.25;;;4.34;51.62
60228;BME280;46091;46.512;6.626;2023-01-29T06:06:24;97707.84;;;4.34;51.63
60228;BME280;46091;46.512;6.626;2023-01-29T06:08:27;97711.00;;;4.38;51.46
60228;BME280;46091;46.512;6.626;2023-01-29T06:10:29;97716.69;;;4.43;51.58
60228;BME280;46091;46.512;6.626;2023-01-29T06:12:32;97707.63;;;4.47;51.33
60228;BME280;46091;46.512;6.626;2023-01-29T06:14:36;97705.25;;;4.44;51.48
60228;BME280;46091;46.512;6.626;2023-01-29T06:16:39;97717.53;;;4.44;51.40
60228;BME280;46091;46.512;6.626;2023-01-29T06:18:42;97720.53;;;4.39;51.38
60228;BME280;46091;46.512;6.626;2023-01-29T06:20:45;97726.72;;;4.38;51.52
60228;BME280;46091;46.512;6.626;2023-01-29T06:22:47;97724.94;;;4.38;51.47
60228;BME280;46091;46.512;6.626;2023-01-29T06:24:50;97720.38;;;4.31;51.54
60228;BME280;46091;46.512;6.626;2023-01-29T06:26:53;97724.06;;;4.28;51.52
60228;BME280;46091;46.512;6.626;2023-01-29T06:28:56;97728.47;;;4.28;51.53
60228;BME280;46091;46.512;6.626;2023-01-29T06:31:01;97727.63;;;4.27;51.34
60228;BME280;46091;46.512;6.626;2023-01-29T06:33:25;97738.50;;;4.23;51.33
60228;BME280;46091;46.512;6.626;2023-01-29T06:35:28;97744.03;;;4.20;51.37
60228;BME280;46091;46.512;6.626;2023-01-29T06:37:31;97754.50;;;4.20;51.52
60228;BME280;46091;46.512;6.626;2023-01-29T06:39:34;97748.53;;;4.18;51.60
60228;BME280;46091;46.512;6.626;2023-01-29T06:41:37;97754.09;;;4.24;51.35
60228;BME280;46091;46.512;6.626;2023-01-29T06:43:42;97764.56;;;4.24;51.41
60228;BME280;46091;46.512;6.626;2023-01-29T06:45:47;97770.75;;;4.23;51.33
60228;BME280;46091;46.512;6.626;2023-01-29T06:47:51;97765.13;;;4.28;51.22
60228;BME280;46091;46.512;6.626;2023-01-29T06:49:54;97761.66;;;4.27;51.25
60228;BME280;46091;46.512;6.626;2023-01-29T06:51:57;97773.94;;;4.27;51.41
60228;BME280;46091;46.512;6.626;2023-01-29T06:53:59;97770.34;;;4.28;51.41
60228;BME280;46091;46.512;6.626;2023-01-29T06:56:03;97770.81;;;4.33;51.26
60228;BME280;46091;46.512;6.626;2023-01-29T06:58:07;97778.41;;;4.36;51.22
60228;BME280;46091;46.512;6.626;2023-01-29T07:00:11;97770.84;;;4.43;51.27
60228;BME280;46091;46.512;6.626;2023-01-29T07:02:14;97763.56;;;4.46;51.10
60228;BME280;46091;46.512;6.626;2023-01-29T07:04:18;97761.31;;;4.42;51.08
60228;BME280;46091;46.512;6.626;2023-01-29T07:06:26;97774.31;;;4.43;51.08
60228;BME280;46091;46.512;6.626;2023-01-29T07:08:29;97771.41;;;4.46;51.20
60228;BME280;46091;46.512;6.626;2023-01-29T07:10:32;97784.31;;;4.38;51.12
60228;BME280;46091;46.512;6.626;2023-01-29T07:12:35;97783.63;;;4.36;51.35
60228;BME280;46091;46.512;6.626;2023-01-29T07:14:37;97792.50;;;4.45;51.36
60228;BME280;46091;46.512;6.626;2023-01-29T07:16:40;97786.84;;;4.49;51.18
60228;BME280;46091;46.512;6.626;2023-01-29T07:18:43;97780.16;;;4.56;50.94
60228;BME280;46091;46.512;6.626;2023-01-29T07:20:47;97802.63;;;4.59;51.17
60228;BME280;46091;46.512;6.626;2023-01-29T07:22:50;97790.56;;;4.47;51.22
60228;BME280;46091;46.512;6.626;2023-01-29T07:24:53;97781.63;;;4.49;50.98
60228;BME280;46091;46.512;6.626;2023-01-29T07:26:55;97786.59;;;4.52;51.19
60228;BME280;46091;46.512;6.626;2023-01-29T07:28:58;97787.31;;;4.54;51.08
60228;BME280;46091;46.512;6.626;2023-01-29T07:31:01;97780.97;;;4.57;50.93
60228;BME280;46091;46.512;6.626;2023-01-29T07:33:06;97775.88;;;4.55;51.02
60228;BME280;46091;46.512;6.626;2023-01-29T07:35:09;97783.69;;;4.46;50.96
60228;BME280;46091;46.512;6.626;2023-01-29T07:37:13;97787.50;;;4.42;51.14
60228;BME280;46091;46.512;6.626;2023-01-29T07:39:16;97782.84;;;4.45;51.04
60228;BME280;46091;46.512;6.626;2023-01-29T07:41:19;97781.75;;;4.48;51.11
60228;BME280;46091;46.512;6.626;2023-01-29T07:43:22;97772.25;;;4.47;50.92
60228;BME280;46091;46.512;6.626;2023-01-29T07:45:26;97773.34;;;4.44;50.93
60228;BME280;46091;46.512;6.626;2023-01-29T07:47:28;97766.19;;;4.46;50.90
60228;BME280;46091;46.512;6.626;2023-01-29T07:49:31;97761.13;;;4.54;51.02
60228;BME280;46091;46.512;6.626;2023-01-29T07:51:34;97764.03;;;4.61;50.96
60228;BME280;46091;46.512;6.626;2023-01-29T07:53:38;97771.94;;;4.71;50.86
60228;BME280;46091;46.512;6.626;2023-01-29T07:55:42;97769.31;;;4.71;50.65
60228;BME280;46091;46.512;6.626;2023-01-29T07:57:45;97773.56;;;4.72;50.58
60228;BME280;46091;46.512;6.626;2023-01-29T07:59:49;97776.88;;;4.74;50.75
60228;BME280;46091;46.512;6.626;2023-01-29T08:01:52;97776.34;;;4.70;50.80
60228;BME280;46091;46.512;6.626;2023-01-29T08:03:55;97772.38;;;4.76;50.63
60228;BME280;46091;46.512;6.626;2023-01-29T08:05:58;97779.41;;;4.85;50.60
60228;BME280;46091;46.512;6.626;2023-01-29T08:08:01;97773.94;;;4.88;50.46
60228;BME280;46091;46.512;6.626;2023-01-29T08:10:10;97769.94;;;4.93;50.34
60228;BME280;46091;46.512;6.626;2023-01-29T08:12:13;97770.75;;;4.94;50.52
60228;BME280;46091;46.512;6.626;2023-01-29T08:14:16;97775.72;;;4.97;50.55
60228;BME280;46091;46.512;6.626;2023-01-29T08:16:18;97782.09;;;5.04;50.55
60228;BME280;46091;46.512;6.626;2023-01-29T08:18:21;97785.00;;;5.11;50.51
60228;BME280;46091;46.512;6.626;2023-01-29T08:20:24;97781.97;;;5.15;50.43
60228;BME280;46091;46.512;6.626;2023-01-29T08:22:27;97778.94;;;5.20;50.44
60228;BME280;46091;46.512;6.626;2023-01-29T08:24:30;97779.66;;;5.22;50.51
60228;BME280;46091;46.512;6.626;2023-01-29T08:26:55;97788.06;;;5.25;50.44
60228;BME280;46091;46.512;6.626;2023-01-29T08:28:57;97790.56;;;5.27;50.61
60228;BME280;46091;46.512;6.626;2023-01-29T08:31:00;97799.25;;;5.28;50.54
60228;BME280;46091;46.512;6.626;2023-01-29T08:33:03;97789.72;;;5.26;50.42
60228;BME280;46091;46.512;6.626;2023-01-29T08:35:07;97791.66;;;5.24;50.56
60228;BME280;46091;46.512;6.626;2023-01-29T08:37:09;97796.06;;;5.24;50.59
60228;BME280;46091;46.512;6.626;2023-01-29T08:39:12;97790.00;;;5.23;50.71
60228;BME280;46091;46.512;6.626;2023-01-29T08:41:15;97793.31;;;5.25;50.76
60228;BME280;46091;46.512;6.626;2023-01-29T08:43:19;97797.59;;;5.26;50.71
60228;BME280;46091;46.512;6.626;2023-01-29T08:45:22;97794.97;;;5.26;50.76
60228;BME280;46091;46.512;6.626;2023-01-29T08:47:24;97799.78;;;5.31;50.93
60228;BME280;46091;46.512;6.626;2023-01-29T08:49:29;97792.50;;;5.35;50.88
60228;BME280;46091;46.512;6.626;2023-01-29T08:51:32;97804.38;;;5.39;50.79
60228;BME280;46091;46.512;6.626;2023-01-29T08:53:34;97813.63;;;5.43;50.54
60228;BME280;46091;46.512;6.626;2023-01-29T08:55:38;97812.69;;;5.44;50.64
60228;BME280;46091;46.512;6.626;2023-01-29T08:57:41;97812.69;;;5.44;50.68
60228;BME280;46091;46.512;6.626;2023-01-29T08:59:45;97813.63;;;5.43;50.61
60228;BME280;46091;46.512;6.626;2023-01-29T09:01:48;97813.50;;;5.44;50.75
60228;BME280;46091;46.512;6.626;2023-01-29T09:03:51;97817.50;;;5.48;50.61
60228;BME280;46091;46.512;6.626;2023-01-29T09:05:53;97814.06;;;5.48;50.69
60228;BME280;46091;46.512;6.626;2023-01-29T09:07:56;97807.97;;;5.47;50.84
60228;BME280;46091;46.512;6.626;2023-01-29T09:09:59;97811.44;;;5.48;50.80
60228;BME280;46091;46.512;6.626;2023-01-29T09:12:03;97817.38;;;5.50;50.73
60228;BME280;46091;46.512;6.626;2023-01-29T09:14:05;97811.84;;;5.53;50.60
60228;BME280;46091;46.512;6.626;2023-01-29T09:16:10;97814.31;;;5.54;50.58
60228;BME280;46091;46.512;6.626;2023-01-29T09:18:13;97808.53;;;5.51;50.48
60228;BME280;46091;46.512;6.626;2023-01-29T09:20:16;97809.09;;;5.45;50.72
60228;BME280;46091;46.512;6.626;2023-01-29T09:22:19;97819.44;;;5.46;50.51
60228;BME280;46091;46.512;6.626;2023-01-29T09:24:22;97822.75;;;5.48;50.72
60228;BME280;46091;46.512;6.626;2023-01-29T09:26:25;97817.09;;;5.53;50.49
60228;BME280;46091;46.512;6.626;2023-01-29T09:28:28;97816.94;;;5.54;50.42
60228;BME280;46091;46.512;6.626;2023-01-29T09:30:31;97822.31;;;5.53;50.56
60228;BME280;46091;46.512;6.626;2023-01-29T09:32:36;97829.22;;;5.54;50.43
60228;BME280;46091;46.512;6.626;2023-01-29T09:34:55;97825.91;;;5.52;50.35
60228;BME280;46091;46.512;6.626;2023-01-29T09:36:58;97828.53;;;5.52;50.25
60228;BME280;46091;46.512;6.626;2023-01-29T09:39:01;97836.41;;;5.52;50.51
60228;BME280;46091;46.512;6.626;2023-01-29T09:41:10;97832.81;;;5.53;50.39
60228;BME280;46091;46.512;6.626;2023-01-29T09:43:18;97835.19;;;5.56;50.57
60228;BME280;46091;46.512;6.626;2023-01-29T09:45:22;97844.44;;;5.60;50.21
60228;BME280;46091;46.512;6.626;2023-01-29T09:47:26;97838.38;;;5.60;50.20
60228;BME280;46091;46.512;6.626;2023-01-29T09:49:34;97834.91;;;5.59;50.16
60228;BME280;46091;46.512;6.626;2023-01-29T09:51:45;97847.75;;;5.62;50.39
60228;BME280;46091;46.512;6.626;2023-01-29T09:53:54;97847.59;;;5.64;50.43
60228;BME280;46091;46.512;6.626;2023-01-29T09:56:03;97849.13;;;5.66;50.21
60228;BME280;46091;46.512;6.626;2023-01-29T09:58:13;97857.72;;;5.68;50.38
60228;BME280;46091;46.512;6.626;2023-01-29T10:00:23;97862.69;;;5.71;50.27
60228;BME280;46091;46.512;6.626;2023-01-29T10:02:48;97861.84;;;5.71;50.25
60228;BME280;46091;46.512;6.626;2023-01-29T10:05:14;97868.59;;;5.73;50.03
60228;BME280;46091;46.512;6.626;2023-01-29T10:07:50;97866.97;;;5.72;50.08
60228;BME280;46091;46.512;6.626;2023-01-29T10:10:17;97874.00;;;5.72;50.22
60228;BME280;46091;46.512;6.626;2023-01-29T10:12:46;97879.09;;;5.73;50.01
60228;BME280;46091;46.512;6.626;2023-01-29T10:14:59;97884.06;;;5.76;49.95
60228;BME280;46091;46.512;6.626;2023-01-29T10:17:14;97881.44;;;5.76;49.88
60228;BME280;46091;46.512;6.626;2023-01-29T10:19:42;97885.03;;;5.75;49.97
60228;BME280;46091;46.512;6.626;2023-01-29T10:22:12;97885.03;;;5.75;49.92
60228;BME280;46091;46.512;6.626;2023-01-29T10:24:33;97885.03;;;5.75;49.89
60228;BME280;46091;46.512;6.626;2023-01-29T10:26:38;97882.41;;;5.75;49.97
60228;BME280;46091;46.512;6.626;2023-01-29T10:28:43;97883.97;;;5.78;49.80
60228;BME280;46091;46.512;6.626;2023-01-29T10:30:49;97882.84;;;5.80;49.80
60228;BME280;46091;46.512;6.626;2023-01-29T10:32:53;97880.38;;;5.79;49.85
60228;BME280;46091;46.512;6.626;2023-01-29T10:34:59;97884.78;;;5.78;49.70
60228;BME280;46091;46.512;6.626;2023-01-29T10:37:14;97874.28;;;5.78;49.79
60228;BME280;46091;46.512;6.626;2023-01-29T10:39:20;97875.66;;;5.82;49.90
60228;BME280;46091;46.512;6.626;2023-01-29T10:41:37;97880.63;;;5.85;49.66
60228;BME280;46091;46.512;6.626;2023-01-29T10:43:52;97873.44;;;5.88;49.53
60228;BME280;46091;46.512;6.626;2023-01-29T10:46:06;97878.47;;;5.91;49.55
60228;BME280;46091;46.512;6.626;2023-01-29T10:48:37;97873.91;;;5.93;49.43
60228;BME280;46091;46.512;6.626;2023-01-29T10:50:46;97882.47;;;5.95;49.68
60228;BME280;46091;46.512;6.626;2023-01-29T10:53:07;97875.44;;;5.95;49.33
60228;BME280;46091;46.512;6.626;2023-01-29T10:55:24;97878.19;;;5.94;49.48
60228;BME280;46091;46.512;6.626;2023-01-29T10:57:50;97868.53;;;5.94;49.50
60228;BME280;46091;46.512;6.626;2023-01-29T11:00:02;97871.28;;;5.93;49.43
60228;BME280;46091;46.512;6.626;2023-01-29T11:02:14;97877.38;;;5.93;49.66
60228;BME280;46091;46.512;6.626;2023-01-29T11:04:18;97871.84;;;5.96;49.30
60228;BME280;46091;46.512;6.626;2023-01-29T11:06:23;97872.94;;;5.94;49.40
60228;BME280;46091;46.512;6.626;2023-01-29T11:08:32;97872.13;;;5.93;49.37
60228;BME280;46091;46.512;6.626;2023-01-29T11:10:40;97869.34;;;5.95;49.49
60228;BME280;46091;46.512;6.626;2023-01-29T11:12:45;97871.69;;;5.98;49.43
60228;BME280;46091;46.512;6.626;2023-01-29T11:14:52;97870.03;;;5.97;49.22
60228;BME280;46091;46.512;6.626;2023-01-29T11:16:56;97863.28;;;5.94;49.20
60228;BME280;46091;46.512;6.626;2023-01-29T11:19:00;97865.22;;;5.92;49.38
60228;BME280;46091;46.512;6.626;2023-01-29T11:21:03;97862.72;;;5.91;49.33
60228;BME280;46091;46.512;6.626;2023-01-29T11:23:23;97861.75;;;5.92;49.27